Pontiac, South Carolina
Current Conditions -  °F | °C
As of 3:35 PM on Sunday 25 Jan 2015 (Local Time) from KCDN Reporting Station
Clear Clear  
Wind Chill: 57°   Ceiling: Unl
Heat Index: 57°   Visibility: 10mi
Dew Point: 32°   Wind: 7mph
Humidity: 38%   Direction: 170°S
Pressure: 29.84"   Gusts: NA
Location:  34.1767°N, 80.8184°W
Report Text: KCDN 252035Z AUTO 17006KT 10SM CLR 14/00 A2984 RMK AO2 TSNO
Loading
Personal Weather Stations






























Interactive Weather Map New forecast layout! Learn more

10-Day Weather Forecast

Advertisements
Track Severe Weather on mobile